Terminal Aerodrome Forecast
Issued by NWS Charleston, WV

Current Version | Previous Version | Graphics & Text | Print | Product List | Glossary On
Versions: 1 2 3 4 5 6 7 8 9 10 11 12 13 14 15 16 17 18 19 20 21 22 23 24 25 26 27
717
FTUS41 KRLX 210541
TAFPKB
TAF
KPKB 210541Z 2106/2206 00000KT P6SM SCT110
     FM211200 16007KT P6SM SHRA BKN060
     FM211500 18009G15KT P6SM SHRA OVC025
     FM211900 18008KT 3SM SHRA VCTS OVC010CB
     FM220000 18006KT 5SM -SHRA OVC025=

USA.gov is the U.S. government's official web portal to all federal, state and local government web resources and services.